9V9

Chamberlain Municipal Airport

Chamberlain, South Dakota, USA
METAR K9V9 170415Z AUTO 03014G19KT 5SM UP OVC009 M03/M03 A3024 RMK AO2 T10301030
Observed Flight Rules
Nov-17 @ 04:15 UTC (26 minutes ago) Instrument Flight Rules
Wind Visibility Clouds Conditions
30° at 14 knots
 Gusting to 19 knots
5 miles
  • Overcast at 900' AGL
  • Unknown precipitation
Temperatures Readings
Current -3°C / 27°F
Dewpoint -3°C / 27°F
Humidity 100%
Altimeter 30.24" Hg
Pressure 1024 hPa
Elevation 519
METAR K9V9 170415Z AUTO 03014G19KT 5SM UP OVC009 M03/M03 A3024 RMK AO2 T10301030
Observed Flight Rules
Nov-17 @ 04:15 UTC
(26 minutes ago)
IFR
Wind Visibility
30° at 14 knots
 Gusting to 19 knots
5 miles
Clouds
  • Overcast at 900' AGL
Conditions
  • Unknown precipitation
Temperature Dewpoint
-3°C / 27°F -3°C / 27°F
Humidity Altimeter Pressure
100% 30.24" Hg 1024 hPa